sensor_id;sensor_type;location;lat;lon;timestamp;temperature;humidity
61398;DHT22;47267;48.130;-2.040;2023-03-21T00:01:57;20.00;48.80
61398;DHT22;47267;48.130;-2.040;2023-03-21T00:04:24;20.10;48.90
61398;DHT22;47267;48.130;-2.040;2023-03-21T00:06:51;20.10;48.90
61398;DHT22;47267;48.130;-2.040;2023-03-21T00:09:17;20.10;48.90
61398;DHT22;47267;48.130;-2.040;2023-03-21T00:11:44;20.10;48.90
61398;DHT22;47267;48.130;-2.040;2023-03-21T00:14:11;20.10;48.90
61398;DHT22;47267;48.130;-2.040;2023-03-21T00:16:39;20.10;48.90
61398;DHT22;47267;48.130;-2.040;2023-03-21T00:19:05;20.10;48.90
61398;DHT22;47267;48.130;-2.040;2023-03-21T00:21:32;20.10;48.90
61398;DHT22;47267;48.130;-2.040;2023-03-21T00:24:03;20.10;48.90
61398;DHT22;47267;48.130;-2.040;2023-03-21T00:26:29;20.10;48.90
61398;DHT22;47267;48.130;-2.040;2023-03-21T00:28:56;20.10;48.90
61398;DHT22;47267;48.130;-2.040;2023-03-21T00:31:21;20.10;48.90
61398;DHT22;47267;48.130;-2.040;2023-03-21T00:33:47;20.10;48.80
61398;DHT22;47267;48.130;-2.040;2023-03-21T00:36:13;20.10;48.90
61398;DHT22;47267;48.130;-2.040;2023-03-21T00:38:40;20.10;48.80
61398;DHT22;47267;48.130;-2.040;2023-03-21T00:41:08;20.10;48.80
61398;DHT22;47267;48.130;-2.040;2023-03-21T00:43:35;20.10;48.80
61398;DHT22;47267;48.130;-2.040;2023-03-21T00:46:00;20.10;48.80
61398;DHT22;47267;48.130;-2.040;2023-03-21T00:48:28;20.10;48.90
61398;DHT22;47267;48.130;-2.040;2023-03-21T00:50:56;20.10;48.80
61398;DHT22;47267;48.130;-2.040;2023-03-21T00:53:23;20.10;48.80
61398;DHT22;47267;48.130;-2.040;2023-03-21T00:55:49;20.10;48.90
61398;DHT22;47267;48.130;-2.040;2023-03-21T00:58:16;20.10;48.80
61398;DHT22;47267;48.130;-2.040;2023-03-21T01:00:42;20.10;48.80
61398;DHT22;47267;48.130;-2.040;2023-03-21T01:03:11;20.10;48.90
61398;DHT22;47267;48.130;-2.040;2023-03-21T01:05:40;20.10;48.80
61398;DHT22;47267;48.130;-2.040;2023-03-21T01:08:25;20.10;49.40
61398;DHT22;47267;48.130;-2.040;2023-03-21T01:10:53;20.10;48.80
61398;DHT22;47267;48.130;-2.040;2023-03-21T01:13:21;20.10;48.80
61398;DHT22;47267;48.130;-2.040;2023-03-21T01:15:53;20.10;48.80
61398;DHT22;47267;48.130;-2.040;2023-03-21T01:18:22;20.10;48.80
61398;DHT22;47267;48.130;-2.040;2023-03-21T01:20:50;20.10;48.80
61398;DHT22;47267;48.130;-2.040;2023-03-21T01:23:16;20.10;48.70
61398;DHT22;47267;48.130;-2.040;2023-03-21T01:25:42;20.10;48.80
61398;DHT22;47267;48.130;-2.040;2023-03-21T01:28:08;20.10;48.70
61398;DHT22;47267;48.130;-2.040;2023-03-21T01:30:35;20.10;48.70
61398;DHT22;47267;48.130;-2.040;2023-03-21T01:33:01;20.10;48.80
61398;DHT22;47267;48.130;-2.040;2023-03-21T01:35:27;20.10;48.70
61398;DHT22;47267;48.130;-2.040;2023-03-21T01:37:52;20.10;48.70
61398;DHT22;47267;48.130;-2.040;2023-03-21T01:40:21;20.10;48.70
61398;DHT22;47267;48.130;-2.040;2023-03-21T01:42:47;20.10;48.70
61398;DHT22;47267;48.130;-2.040;2023-03-21T01:48:17;20.10;48.70
61398;DHT22;47267;48.130;-2.040;2023-03-21T01:50:45;20.20;48.70
61398;DHT22;47267;48.130;-2.040;2023-03-21T01:53:12;20.10;48.70
61398;DHT22;47267;48.130;-2.040;2023-03-21T01:55:38;20.10;48.70
61398;DHT22;47267;48.130;-2.040;2023-03-21T01:58:05;20.10;48.70
61398;DHT22;47267;48.130;-2.040;2023-03-21T02:00:33;20.10;48.70
61398;DHT22;47267;48.130;-2.040;2023-03-21T02:03:00;20.10;48.70
61398;DHT22;47267;48.130;-2.040;2023-03-21T02:05:40;20.10;48.70
61398;DHT22;47267;48.130;-2.040;2023-03-21T02:08:08;20.10;48.60
61398;DHT22;47267;48.130;-2.040;2023-03-21T02:10:34;20.10;48.60
61398;DHT22;47267;48.130;-2.040;2023-03-21T02:13:03;20.10;48.60
61398;DHT22;47267;48.130;-2.040;2023-03-21T02:15:36;20.10;48.60
61398;DHT22;47267;48.130;-2.040;2023-03-21T02:18:12;20.10;48.60
61398;DHT22;47267;48.130;-2.040;2023-03-21T02:29:22;20.10;48.50
61398;DHT22;47267;48.130;-2.040;2023-03-21T02:32:10;20.10;48.60
61398;DHT22;47267;48.130;-2.040;2023-03-21T02:37:24;20.10;48.50
61398;DHT22;47267;48.130;-2.040;2023-03-21T02:45:19;20.10;48.50
61398;DHT22;47267;48.130;-2.040;2023-03-21T02:47:57;20.10;48.50
61398;DHT22;47267;48.130;-2.040;2023-03-21T02:50:31;20.10;48.50
61398;DHT22;47267;48.130;-2.040;2023-03-21T02:52:58;20.10;48.50
61398;DHT22;47267;48.130;-2.040;2023-03-21T02:55:27;20.10;48.50
61398;DHT22;47267;48.130;-2.040;2023-03-21T02:57:56;20.00;48.50
61398;DHT22;47267;48.130;-2.040;2023-03-21T03:00:25;20.10;48.50
61398;DHT22;47267;48.130;-2.040;2023-03-21T03:02:51;20.00;48.50
61398;DHT22;47267;48.130;-2.040;2023-03-21T03:05:27;20.00;48.50
61398;DHT22;47267;48.130;-2.040;2023-03-21T03:18:57;20.00;48.50
61398;DHT22;47267;48.130;-2.040;2023-03-21T03:21:28;20.00;48.50
61398;DHT22;47267;48.130;-2.040;2023-03-21T03:26:57;20.00;48.50
61398;DHT22;47267;48.130;-2.040;2023-03-21T03:29:25;20.00;48.50
61398;DHT22;47267;48.130;-2.040;2023-03-21T03:34:24;20.00;48.50
61398;DHT22;47267;48.130;-2.040;2023-03-21T03:36:54;20.00;48.50
61398;DHT22;47267;48.130;-2.040;2023-03-21T03:39:26;20.00;48.50
61398;DHT22;47267;48.130;-2.040;2023-03-21T03:42:05;20.00;48.50
61398;DHT22;47267;48.130;-2.040;2023-03-21T03:44:34;20.00;48.50
61398;DHT22;47267;48.130;-2.040;2023-03-21T03:50:00;20.00;48.50
61398;DHT22;47267;48.130;-2.040;2023-03-21T03:52:31;19.90;48.40
61398;DHT22;47267;48.130;-2.040;2023-03-21T03:54:59;19.90;48.40
61398;DHT22;47267;48.130;-2.040;2023-03-21T03:57:26;20.00;48.50
61398;DHT22;47267;48.130;-2.040;2023-03-21T03:59:52;20.00;48.50
61398;DHT22;47267;48.130;-2.040;2023-03-21T04:02:18;19.90;48.40
61398;DHT22;47267;48.130;-2.040;2023-03-21T04:04:45;20.00;48.50
61398;DHT22;47267;48.130;-2.040;2023-03-21T04:07:11;19.90;48.40
61398;DHT22;47267;48.130;-2.040;2023-03-21T04:09:37;19.90;48.40
61398;DHT22;47267;48.130;-2.040;2023-03-21T04:12:03;20.00;49.10
61398;DHT22;47267;48.130;-2.040;2023-03-21T04:14:29;20.00;48.50
61398;DHT22;47267;48.130;-2.040;2023-03-21T04:16:54;20.00;49.10
61398;DHT22;47267;48.130;-2.040;2023-03-21T04:19:20;20.00;48.50
61398;DHT22;47267;48.130;-2.040;2023-03-21T04:21:46;20.00;48.50
61398;DHT22;47267;48.130;-2.040;2023-03-21T04:24:13;19.90;48.40
61398;DHT22;47267;48.130;-2.040;2023-03-21T04:26:39;19.90;48.40
61398;DHT22;47267;48.130;-2.040;2023-03-21T04:29:05;19.90;48.40
61398;DHT22;47267;48.130;-2.040;2023-03-21T04:31:33;20.00;48.50
61398;DHT22;47267;48.130;-2.040;2023-03-21T04:34:02;20.00;48.50
61398;DHT22;47267;48.130;-2.040;2023-03-21T04:36:30;20.00;48.50
61398;DHT22;47267;48.130;-2.040;2023-03-21T04:39:04;20.00;48.50
61398;DHT22;47267;48.130;-2.040;2023-03-21T04:41:34;20.00;48.50
61398;DHT22;47267;48.130;-2.040;2023-03-21T04:44:02;20.00;48.50
61398;DHT22;47267;48.130;-2.040;2023-03-21T04:46:27;20.00;48.50
61398;DHT22;47267;48.130;-2.040;2023-03-21T04:48:53;20.00;48.50
61398;DHT22;47267;48.130;-2.040;2023-03-21T04:51:19;20.00;48.50
61398;DHT22;47267;48.130;-2.040;2023-03-21T04:53:45;20.00;48.50
61398;DHT22;47267;48.130;-2.040;2023-03-21T04:56:14;20.00;48.50
61398;DHT22;47267;48.130;-2.040;2023-03-21T04:58:40;20.00;48.50
61398;DHT22;47267;48.130;-2.040;2023-03-21T05:01:06;20.00;48.50
61398;DHT22;47267;48.130;-2.040;2023-03-21T05:03:32;20.00;48.50
61398;DHT22;47267;48.130;-2.040;2023-03-21T05:06:02;20.00;48.50
61398;DHT22;47267;48.130;-2.040;2023-03-21T05:08:28;20.00;48.50
61398;DHT22;47267;48.130;-2.040;2023-03-21T05:10:53;20.00;48.50
61398;DHT22;47267;48.130;-2.040;2023-03-21T05:13:19;20.00;48.50
61398;DHT22;47267;48.130;-2.040;2023-03-21T05:15:45;20.00;48.50
61398;DHT22;47267;48.130;-2.040;2023-03-21T05:18:10;20.00;48.50
61398;DHT22;47267;48.130;-2.040;2023-03-21T05:20:40;20.00;48.50
61398;DHT22;47267;48.130;-2.040;2023-03-21T05:23:09;20.00;48.50
61398;DHT22;47267;48.130;-2.040;2023-03-21T05:25:37;20.00;48.50
61398;DHT22;47267;48.130;-2.040;2023-03-21T05:28:06;20.00;48.50
61398;DHT22;47267;48.130;-2.040;2023-03-21T05:30:33;20.00;48.50
61398;DHT22;47267;48.130;-2.040;2023-03-21T05:32:59;20.00;48.50
61398;DHT22;47267;48.130;-2.040;2023-03-21T05:35:25;20.00;48.50
61398;DHT22;47267;48.130;-2.040;2023-03-21T05:37:51;20.00;48.50
61398;DHT22;47267;48.130;-2.040;2023-03-21T05:40:17;20.00;48.50
61398;DHT22;47267;48.130;-2.040;2023-03-21T05:42:44;20.00;48.50
61398;DHT22;47267;48.130;-2.040;2023-03-21T05:45:10;20.00;48.50
61398;DHT22;47267;48.130;-2.040;2023-03-21T05:47:36;20.00;48.50
61398;DHT22;47267;48.130;-2.040;2023-03-21T05:50:01;20.00;48.50
61398;DHT22;47267;48.130;-2.040;2023-03-21T05:52:27;20.00;48.50
61398;DHT22;47267;48.130;-2.040;2023-03-21T05:54:54;20.00;48.50
61398;DHT22;47267;48.130;-2.040;2023-03-21T05:57:19;20.00;48.50
61398;DHT22;47267;48.130;-2.040;2023-03-21T05:59:45;20.00;48.50
61398;DHT22;47267;48.130;-2.040;2023-03-21T06:02:11;20.00;48.50
61398;DHT22;47267;48.130;-2.040;2023-03-21T06:04:37;20.00;48.50
61398;DHT22;47267;48.130;-2.040;2023-03-21T06:07:03;20.10;48.50
61398;DHT22;47267;48.130;-2.040;2023-03-21T06:09:28;20.10;48.60
61398;DHT22;47267;48.130;-2.040;2023-03-21T06:11:55;20.00;48.50
61398;DHT22;47267;48.130;-2.040;2023-03-21T06:14:22;20.10;48.50
61398;DHT22;47267;48.130;-2.040;2023-03-21T06:16:48;20.10;48.50
61398;DHT22;47267;48.130;-2.040;2023-03-21T06:19:15;20.10;48.50
61398;DHT22;47267;48.130;-2.040;2023-03-21T06:21:41;20.10;48.60
61398;DHT22;47267;48.130;-2.040;2023-03-21T06:24:07;20.10;48.50
61398;DHT22;47267;48.130;-2.040;2023-03-21T06:26:33;20.10;48.50
61398;DHT22;47267;48.130;-2.040;2023-03-21T06:28:58;20.10;48.50
61398;DHT22;47267;48.130;-2.040;2023-03-21T06:31:24;20.10;48.60
61398;DHT22;47267;48.130;-2.040;2023-03-21T06:33:51;20.10;48.50
61398;DHT22;47267;48.130;-2.040;2023-03-21T06:36:18;20.10;48.60
61398;DHT22;47267;48.130;-2.040;2023-03-21T06:38:44;20.10;48.50
61398;DHT22;47267;48.130;-2.040;2023-03-21T06:41:11;20.10;48.50
61398;DHT22;47267;48.130;-2.040;2023-03-21T06:43:37;20.10;48.50
61398;DHT22;47267;48.130;-2.040;2023-03-21T06:46:04;20.10;48.50
61398;DHT22;47267;48.130;-2.040;2023-03-21T06:48:30;20.10;48.50
61398;DHT22;47267;48.130;-2.040;2023-03-21T06:50:56;20.10;48.50
61398;DHT22;47267;48.130;-2.040;2023-03-21T06:53:22;20.10;48.60
61398;DHT22;47267;48.130;-2.040;2023-03-21T06:55:52;20.10;48.60
61398;DHT22;47267;48.130;-2.040;2023-03-21T06:58:18;20.10;48.50
61398;DHT22;47267;48.130;-2.040;2023-03-21T07:00:44;20.10;48.50
61398;DHT22;47267;48.130;-2.040;2023-03-21T07:03:11;20.10;48.50
61398;DHT22;47267;48.130;-2.040;2023-03-21T07:05:37;20.10;48.50
61398;DHT22;47267;48.130;-2.040;2023-03-21T07:08:04;20.10;48.50
61398;DHT22;47267;48.130;-2.040;2023-03-21T07:10:29;20.10;48.50
61398;DHT22;47267;48.130;-2.040;2023-03-21T07:12:57;20.10;48.60
61398;DHT22;47267;48.130;-2.040;2023-03-21T07:15:23;20.10;48.60
61398;DHT22;47267;48.130;-2.040;2023-03-21T07:17:48;20.10;48.60
61398;DHT22;47267;48.130;-2.040;2023-03-21T07:20:14;20.10;48.50
61398;DHT22;47267;48.130;-2.040;2023-03-21T07:22:40;20.10;48.50
61398;DHT22;47267;48.130;-2.040;2023-03-21T07:25:06;20.10;48.60
61398;DHT22;47267;48.130;-2.040;2023-03-21T07:27:32;20.10;48.50
61398;DHT22;47267;48.130;-2.040;2023-03-21T07:29:58;20.10;48.60
61398;DHT22;47267;48.130;-2.040;2023-03-21T07:32:24;20.10;48.50
61398;DHT22;47267;48.130;-2.040;2023-03-21T07:34:54;20.10;48.50
61398;DHT22;47267;48.130;-2.040;2023-03-21T07:37:20;20.10;48.50
61398;DHT22;47267;48.130;-2.040;2023-03-21T07:39:46;20.10;48.50
61398;DHT22;47267;48.130;-2.040;2023-03-21T07:42:11;20.10;48.50
61398;DHT22;47267;48.130;-2.040;2023-03-21T07:44:37;20.10;48.60
61398;DHT22;47267;48.130;-2.040;2023-03-21T07:47:04;20.10;48.60
61398;DHT22;47267;48.130;-2.040;2023-03-21T07:49:30;20.10;48.60
61398;DHT22;47267;48.130;-2.040;2023-03-21T07:51:56;20.10;48.60
61398;DHT22;47267;48.130;-2.040;2023-03-21T07:54:22;20.10;48.60
61398;DHT22;47267;48.130;-2.040;2023-03-21T07:56:48;20.10;48.60
61398;DHT22;47267;48.130;-2.040;2023-03-21T07:59:13;20.10;48.60
61398;DHT22;47267;48.130;-2.040;2023-03-21T08:01:39;20.10;48.70
61398;DHT22;47267;48.130;-2.040;2023-03-21T08:04:05;20.10;48.60
61398;DHT22;47267;48.130;-2.040;2023-03-21T08:06:33;20.10;48.60
61398;DHT22;47267;48.130;-2.040;2023-03-21T08:08:59;20.10;48.70
61398;DHT22;47267;48.130;-2.040;2023-03-21T08:11:25;20.10;48.70
61398;DHT22;47267;48.130;-2.040;2023-03-21T08:13:56;20.10;48.70
61398;DHT22;47267;48.130;-2.040;2023-03-21T08:16:21;20.10;48.70
61398;DHT22;47267;48.130;-2.040;2023-03-21T08:18:47;20.10;48.70
61398;DHT22;47267;48.130;-2.040;2023-03-21T08:21:13;20.10;48.70
61398;DHT22;47267;48.130;-2.040;2023-03-21T08:23:39;20.10;48.70
61398;DHT22;47267;48.130;-2.040;2023-03-21T08:26:05;20.10;48.70
61398;DHT22;47267;48.130;-2.040;2023-03-21T08:28:30;20.10;48.70
61398;DHT22;47267;48.130;-2.040;2023-03-21T08:30:56;20.10;48.70
61398;DHT22;47267;48.130;-2.040;2023-03-21T08:33:22;20.10;48.70
61398;DHT22;47267;48.130;-2.040;2023-03-21T08:35:47;20.10;48.80
61398;DHT22;47267;48.130;-2.040;2023-03-21T08:38:13;20.10;48.70
61398;DHT22;47267;48.130;-2.040;2023-03-21T08:40:39;20.10;48.80
61398;DHT22;47267;48.130;-2.040;2023-03-21T08:43:05;20.10;48.80
61398;DHT22;47267;48.130;-2.040;2023-03-21T08:45:31;20.10;48.80
61398;DHT22;47267;48.130;-2.040;2023-03-21T08:47:57;20.10;48.80
61398;DHT22;47267;48.130;-2.040;2023-03-21T08:50:25;20.10;48.80
61398;DHT22;47267;48.130;-2.040;2023-03-21T08:52:52;20.10;48.80
61398;DHT22;47267;48.130;-2.040;2023-03-21T08:55:18;20.10;48.80
61398;DHT22;47267;48.130;-2.040;2023-03-21T08:57:44;20.10;48.80
61398;DHT22;47267;48.130;-2.040;2023-03-21T09:00:14;20.10;48.80
61398;DHT22;47267;48.130;-2.040;2023-03-21T09:02:46;20.10;48.80
61398;DHT22;47267;48.130;-2.040;2023-03-21T09:05:13;20.10;48.80
61398;DHT22;47267;48.130;-2.040;2023-03-21T09:07:40;20.10;48.80
61398;DHT22;47267;48.130;-2.040;2023-03-21T09:10:07;20.10;48.80
61398;DHT22;47267;48.130;-2.040;2023-03-21T09:12:34;20.10;48.80
61398;DHT22;47267;48.130;-2.040;2023-03-21T09:15:00;20.10;48.80
61398;DHT22;47267;48.130;-2.040;2023-03-21T09:17:28;20.10;48.80
61398;DHT22;47267;48.130;-2.040;2023-03-21T09:19:54;20.10;48.80
61398;DHT22;47267;48.130;-2.040;2023-03-21T09:22:21;20.10;48.80
61398;DHT22;47267;48.130;-2.040;2023-03-21T09:24:48;20.10;48.80
61398;DHT22;47267;48.130;-2.040;2023-03-21T09:27:15;20.10;48.80
61398;DHT22;47267;48.130;-2.040;2023-03-21T09:29:42;20.10;48.80
61398;DHT22;47267;48.130;-2.040;2023-03-21T09:32:09;20.10;48.80
61398;DHT22;47267;48.130;-2.040;2023-03-21T09:34:37;20.10;48.80
61398;DHT22;47267;48.130;-2.040;2023-03-21T09:37:06;20.10;48.80
61398;DHT22;47267;48.130;-2.040;2023-03-21T09:39:38;20.10;48.80
61398;DHT22;47267;48.130;-2.040;2023-03-21T09:45:06;20.10;48.80
61398;DHT22;47267;48.130;-2.040;2023-03-21T09:47:52;20.10;48.80
61398;DHT22;47267;48.130;-2.040;2023-03-21T09:50:21;20.10;48.80
61398;DHT22;47267;48.130;-2.040;2023-03-21T09:55:37;20.10;48.80
61398;DHT22;47267;48.130;-2.040;2023-03-21T09:58:25;20.00;48.80
61398;DHT22;47267;48.130;-2.040;2023-03-21T10:01:05;20.00;48.80
61398;DHT22;47267;48.130;-2.040;2023-03-21T10:03:35;20.00;48.80
61398;DHT22;47267;48.130;-2.040;2023-03-21T10:06:04;20.00;48.80
61398;DHT22;47267;48.130;-2.040;2023-03-21T10:08:38;20.00;48.80
61398;DHT22;47267;48.130;-2.040;2023-03-21T10:13:41;20.00;48.80
61398;DHT22;47267;48.130;-2.040;2023-03-21T10:16:20;20.00;48.90
61398;DHT22;47267;48.130;-2.040;2023-03-21T10:18:47;20.00;48.80
61398;DHT22;47267;48.130;-2.040;2023-03-21T10:21:20;20.00;48.80
61398;DHT22;47267;48.130;-2.040;2023-03-21T10:23:48;20.00;48.80
61398;DHT22;47267;48.130;-2.040;2023-03-21T10:26:20;20.00;48.90
61398;DHT22;47267;48.130;-2.040;2023-03-21T10:28:48;20.00;48.80
61398;DHT22;47267;48.130;-2.040;2023-03-21T10:31:17;19.90;48.80
61398;DHT22;47267;48.130;-2.040;2023-03-21T10:33:46;20.00;48.90
61398;DHT22;47267;48.130;-2.040;2023-03-21T10:36:19;19.90;48.80
61398;DHT22;47267;48.130;-2.040;2023-03-21T10:38:49;20.00;49.50
61398;DHT22;47267;48.130;-2.040;2023-03-21T10:41:17;19.90;48.80
61398;DHT22;47267;48.130;-2.040;2023-03-21T10:43:44;19.90;48.80
61398;DHT22;47267;48.130;-2.040;2023-03-21T10:46:18;20.00;48.90
61398;DHT22;47267;48.130;-2.040;2023-03-21T10:48:52;19.90;48.80
61398;DHT22;47267;48.130;-2.040;2023-03-21T10:51:21;19.90;48.80
61398;DHT22;47267;48.130;-2.040;2023-03-21T10:53:58;19.90;48.80
61398;DHT22;47267;48.130;-2.040;2023-03-21T10:56:30;19.90;48.80
61398;DHT22;47267;48.130;-2.040;2023-03-21T10:59:03;19.90;48.80
61398;DHT22;47267;48.130;-2.040;2023-03-21T11:01:40;19.90;48.90
61398;DHT22;47267;48.130;-2.040;2023-03-21T11:04:21;19.90;48.80
61398;DHT22;47267;48.130;-2.040;2023-03-21T11:06:58;19.90;48.90
61398;DHT22;47267;48.130;-2.040;2023-03-21T11:09:46;19.90;48.90
61398;DHT22;47267;48.130;-2.040;2023-03-21T11:12:14;19.90;48.90
61398;DHT22;47267;48.130;-2.040;2023-03-21T11:14:48;19.90;48.90
61398;DHT22;47267;48.130;-2.040;2023-03-21T11:17:19;19.90;48.90
61398;DHT22;47267;48.130;-2.040;2023-03-21T11:20:00;19.90;49.00
61398;DHT22;47267;48.130;-2.040;2023-03-21T11:22:28;19.90;49.00
61398;DHT22;47267;48.130;-2.040;2023-03-21T11:24:59;19.90;49.00
61398;DHT22;47267;48.130;-2.040;2023-03-21T11:27:28;19.90;49.00
61398;DHT22;47267;48.130;-2.040;2023-03-21T11:29:57;19.80;49.00
61398;DHT22;47267;48.130;-2.040;2023-03-21T11:32:30;19.90;49.00
61398;DHT22;47267;48.130;-2.040;2023-03-21T11:35:06;19.80;49.00
61398;DHT22;47267;48.130;-2.040;2023-03-21T11:37:43;19.80;49.00
61398;DHT22;47267;48.130;-2.040;2023-03-21T11:40:30;19.80;49.00
61398;DHT22;47267;48.130;-2.040;2023-03-21T11:45:55;19.80;49.10
61398;DHT22;47267;48.130;-2.040;2023-03-21T11:48:22;19.80;49.10
61398;DHT22;47267;48.130;-2.040;2023-03-21T11:50:50;19.80;49.10
61398;DHT22;47267;48.130;-2.040;2023-03-21T11:56:39;19.80;49.20
61398;DHT22;47267;48.130;-2.040;2023-03-21T12:02:21;19.80;49.20
61398;DHT22;47267;48.130;-2.040;2023-03-21T12:04:53;19.80;49.20
61398;DHT22;47267;48.130;-2.040;2023-03-21T12:10:14;19.90;49.30
61398;DHT22;47267;48.130;-2.040;2023-03-21T12:13:02;19.80;49.20
61398;DHT22;47267;48.130;-2.040;2023-03-21T12:21:09;19.80;49.30
61398;DHT22;47267;48.130;-2.040;2023-03-21T12:24:03;19.80;49.30
61398;DHT22;47267;48.130;-2.040;2023-03-21T12:26:37;19.80;49.30
61398;DHT22;47267;48.130;-2.040;2023-03-21T12:34:57;19.80;49.40
61398;DHT22;47267;48.130;-2.040;2023-03-21T12:45:39;19.80;49.40
61398;DHT22;47267;48.130;-2.040;2023-03-21T12:51:02;19.80;49.40
61398;DHT22;47267;48.130;-2.040;2023-03-21T12:56:10;19.80;49.40
61398;DHT22;47267;48.130;-2.040;2023-03-21T12:58:53;19.80;49.40
61398;DHT22;47267;48.130;-2.040;2023-03-21T13:01:21;19.80;49.50
61398;DHT22;47267;48.130;-2.040;2023-03-21T13:06:36;19.80;49.40
61398;DHT22;47267;48.130;-2.040;2023-03-21T13:09:14;19.80;49.50
61398;DHT22;47267;48.130;-2.040;2023-03-21T13:11:43;19.80;49.50
61398;DHT22;47267;48.130;-2.040;2023-03-21T13:14:14;19.80;49.50
61398;DHT22;47267;48.130;-2.040;2023-03-21T13:16:52;19.80;49.50
61398;DHT22;47267;48.130;-2.040;2023-03-21T13:22:23;19.80;49.50
61398;DHT22;47267;48.130;-2.040;2023-03-21T13:24:58;19.80;49.50
61398;DHT22;47267;48.130;-2.040;2023-03-21T13:27:37;19.90;49.60
61398;DHT22;47267;48.130;-2.040;2023-03-21T13:30:24;19.80;49.50
61398;DHT22;47267;48.130;-2.040;2023-03-21T13:33:10;19.80;49.60
61398;DHT22;47267;48.130;-2.040;2023-03-21T13:35:39;19.90;49.60
61398;DHT22;47267;48.130;-2.040;2023-03-21T13:38:25;19.80;49.50
61398;DHT22;47267;48.130;-2.040;2023-03-21T13:40:59;19.80;49.50
61398;DHT22;47267;48.130;-2.040;2023-03-21T13:48:54;19.80;49.50
61398;DHT22;47267;48.130;-2.040;2023-03-21T13:54:15;19.80;49.60
61398;DHT22;47267;48.130;-2.040;2023-03-21T13:59:13;19.80;49.60
61398;DHT22;47267;48.130;-2.040;2023-03-21T14:02:03;19.80;49.60
61398;DHT22;47267;48.130;-2.040;2023-03-21T14:04:34;19.90;49.60
61398;DHT22;47267;48.130;-2.040;2023-03-21T14:09:56;19.90;49.60
61398;DHT22;47267;48.130;-2.040;2023-03-21T14:12:26;19.90;49.60
61398;DHT22;47267;48.130;-2.040;2023-03-21T14:14:58;19.80;49.60
61398;DHT22;47267;48.130;-2.040;2023-03-21T14:17:28;19.80;49.60
61398;DHT22;47267;48.130;-2.040;2023-03-21T14:20:07;19.90;49.60
61398;DHT22;47267;48.130;-2.040;2023-03-21T14:22:38;19.90;49.60
61398;DHT22;47267;48.130;-2.040;2023-03-21T14:25:09;19.90;49.70
61398;DHT22;47267;48.130;-2.040;2023-03-21T14:27:35;19.90;49.60
61398;DHT22;47267;48.130;-2.040;2023-03-21T14:30:03;19.90;49.60
61398;DHT22;47267;48.130;-2.040;2023-03-21T14:32:29;19.90;49.60
61398;DHT22;47267;48.130;-2.040;2023-03-21T14:34:58;19.90;49.70
61398;DHT22;47267;48.130;-2.040;2023-03-21T14:37:36;19.90;49.60
61398;DHT22;47267;48.130;-2.040;2023-03-21T14:40:06;19.90;49.70
61398;DHT22;47267;48.130;-2.040;2023-03-21T14:42:36;19.90;49.60
61398;DHT22;47267;48.130;-2.040;2023-03-21T14:50:48;19.90;49.60
61398;DHT22;47267;48.130;-2.040;2023-03-21T14:53:26;19.90;49.60
61398;DHT22;47267;48.130;-2.040;2023-03-21T14:56:15;19.90;49.60
61398;DHT22;47267;48.130;-2.040;2023-03-21T14:58:43;19.90;49.60
61398;DHT22;47267;48.130;-2.040;2023-03-21T15:01:35;19.90;49.60
61398;DHT22;47267;48.130;-2.040;2023-03-21T15:04:04;19.90;49.60
61398;DHT22;47267;48.130;-2.040;2023-03-21T15:06:30;19.90;49.60
61398;DHT22;47267;48.130;-2.040;2023-03-21T15:09:02;19.90;49.60
61398;DHT22;47267;48.130;-2.040;2023-03-21T15:11:34;19.90;49.60
61398;DHT22;47267;48.130;-2.040;2023-03-21T15:14:02;19.90;49.60
61398;DHT22;47267;48.130;-2.040;2023-03-21T15:16:30;19.90;49.60
61398;DHT22;47267;48.130;-2.040;2023-03-21T15:18:57;19.90;49.60
61398;DHT22;47267;48.130;-2.040;2023-03-21T15:21:29;19.90;49.70
61398;DHT22;47267;48.130;-2.040;2023-03-21T15:24:18;19.90;49.60
61398;DHT22;47267;48.130;-2.040;2023-03-21T15:26:47;19.90;49.60
61398;DHT22;47267;48.130;-2.040;2023-03-21T15:29:15;19.90;49.60
61398;DHT22;47267;48.130;-2.040;2023-03-21T15:31:41;19.90;50.20
61398;DHT22;47267;48.130;-2.040;2023-03-21T15:34:21;19.90;49.60
61398;DHT22;47267;48.130;-2.040;2023-03-21T15:36:48;19.90;49.60
61398;DHT22;47267;48.130;-2.040;2023-03-21T15:39:16;19.90;49.60
61398;DHT22;47267;48.130;-2.040;2023-03-21T15:44:27;19.90;49.60
61398;DHT22;47267;48.130;-2.040;2023-03-21T15:46:54;19.90;49.60
61398;DHT22;47267;48.130;-2.040;2023-03-21T15:49:32;19.90;49.60
61398;DHT22;47267;48.130;-2.040;2023-03-21T15:52:11;19.90;49.60
61398;DHT22;47267;48.130;-2.040;2023-03-21T15:54:46;19.90;49.60
61398;DHT22;47267;48.130;-2.040;2023-03-21T15:57:28;19.90;49.60
61398;DHT22;47267;48.130;-2.040;2023-03-21T16:00:37;19.90;49.60
61398;DHT22;47267;48.130;-2.040;2023-03-21T16:03:15;20.00;49.70
61398;DHT22;47267;48.130;-2.040;2023-03-21T16:06:04;19.90;49.60
61398;DHT22;47267;48.130;-2.040;2023-03-21T16:08:35;20.00;49.60
61398;DHT22;47267;48.130;-2.040;2023-03-21T16:11:26;20.00;49.70
61398;DHT22;47267;48.130;-2.040;2023-03-21T16:13:53;19.90;49.60
61398;DHT22;47267;48.130;-2.040;2023-03-21T16:16:24;19.90;49.60
61398;DHT22;47267;48.130;-2.040;2023-03-21T16:18:51;19.90;49.60
61398;DHT22;47267;48.130;-2.040;2023-03-21T16:21:20;20.00;49.70
61398;DHT22;47267;48.130;-2.040;2023-03-21T16:23:47;20.00;49.70
61398;DHT22;47267;48.130;-2.040;2023-03-21T16:26:21;20.00;49.60
61398;DHT22;47267;48.130;-2.040;2023-03-21T16:28:48;20.00;49.60
61398;DHT22;47267;48.130;-2.040;2023-03-21T16:31:22;20.00;49.60
61398;DHT22;47267;48.130;-2.040;2023-03-21T16:33:49;20.00;49.60
61398;DHT22;47267;48.130;-2.040;2023-03-21T16:36:22;20.00;49.60
61398;DHT22;47267;48.130;-2.040;2023-03-21T16:38:50;20.00;49.60
61398;DHT22;47267;48.130;-2.040;2023-03-21T16:41:18;20.00;49.60
61398;DHT22;47267;48.130;-2.040;2023-03-21T16:43:44;20.00;49.60
61398;DHT22;47267;48.130;-2.040;2023-03-21T16:46:18;20.00;49.70
61398;DHT22;47267;48.130;-2.040;2023-03-21T16:48:47;20.00;49.60
61398;DHT22;47267;48.130;-2.040;2023-03-21T16:51:14;20.00;49.60
61398;DHT22;47267;48.130;-2.040;2023-03-21T16:53:41;20.00;49.60
61398;DHT22;47267;48.130;-2.040;2023-03-21T16:56:14;20.10;49.70
61398;DHT22;47267;48.130;-2.040;2023-03-21T16:58:40;20.10;49.70
61398;DHT22;47267;48.130;-2.040;2023-03-21T17:01:11;20.10;49.70
61398;DHT22;47267;48.130;-2.040;2023-03-21T17:03:37;20.00;49.70
61398;DHT22;47267;48.130;-2.040;2023-03-21T17:06:04;20.10;49.70
61398;DHT22;47267;48.130;-2.040;2023-03-21T17:08:30;20.10;49.70
61398;DHT22;47267;48.130;-2.040;2023-03-21T17:10:56;20.10;49.70
61398;DHT22;47267;48.130;-2.040;2023-03-21T17:13:24;20.10;49.70
61398;DHT22;47267;48.130;-2.040;2023-03-21T17:15:50;20.10;49.60
61398;DHT22;47267;48.130;-2.040;2023-03-21T17:18:15;20.10;49.60
61398;DHT22;47267;48.130;-2.040;2023-03-21T17:20:41;20.10;49.70
61398;DHT22;47267;48.130;-2.040;2023-03-21T17:23:07;20.10;49.70